createdAt,value
2022-09-20T00:02:08.014Z,102255.19
2022-09-20T00:07:30.179Z,102257.13
2022-09-20T00:12:51.995Z,102250.19
2022-09-20T00:18:13.563Z,102257.19
2022-09-20T00:23:36.075Z,102252.88
2022-09-20T00:28:58.353Z,102258.22
2022-09-20T00:34:37.970Z,102261.75
2022-09-20T00:40:00.247Z,102267.00
2022-09-20T00:45:23.504Z,102268.72
2022-09-20T00:50:47.297Z,102262.53
2022-09-20T00:56:12.098Z,102261.69
2022-09-20T01:01:33.842Z,102261.56
2022-09-20T01:06:57.991Z,102253.69
2022-09-20T01:12:21.869Z,102261.63
2022-09-20T01:17:47.688Z,102253.88
2022-09-20T01:23:24.045Z,102260.94
2022-09-20T01:28:47.870Z,102254.06
2022-09-20T01:34:12.618Z,102251.50
2022-09-20T01:39:39.402Z,102246.31
2022-09-20T01:45:06.598Z,102248.06
2022-09-20T01:50:33.723Z,102255.06
2022-09-20T01:56:20.795Z,102248.09
2022-09-20T02:02:16.643Z,102253.34
2022-09-20T02:08:11.751Z,102243.75
2022-09-20T02:13:42.336Z,102249.06
2022-09-20T02:19:17.722Z,102242.06
2022-09-20T02:24:46.015Z,102242.09
2022-09-20T02:30:15.210Z,102246.47
2022-09-20T02:35:41.961Z,102210.13
2022-09-20T02:41:25.908Z,102238.78
2022-09-20T02:46:53.566Z,102247.56
2022-09-20T02:52:22.989Z,102246.75
2022-09-20T02:57:48.327Z,102245.09
2022-09-20T03:03:14.958Z,102253.75
2022-09-20T03:08:44.361Z,102240.72
2022-09-20T03:14:13.711Z,102263.38
2022-09-20T03:19:46.471Z,102269.56
2022-09-20T03:25:27.414Z,102267.00
2022-09-20T03:31:00.394Z,102264.34
2022-09-20T03:36:31.853Z,102262.66
2022-09-20T03:42:02.872Z,102267.00
2022-09-20T03:47:36.965Z,102269.56
2022-09-20T03:53:35.922Z,102266.09
2022-09-20T03:59:08.022Z,102259.97
2022-09-20T04:04:32.847Z,102265.25
2022-09-20T04:10:16.027Z,102265.31
2022-09-20T04:15:45.208Z,102261.91
2022-09-20T04:21:11.511Z,102256.78
2022-09-20T04:26:38.812Z,102266.34
2022-09-20T04:32:07.938Z,102266.38
2022-09-20T04:37:32.689Z,102257.75
2022-09-20T04:43:20.105Z,102265.59
2022-09-20T04:49:14.653Z,102268.22
2022-09-20T04:55:11.498Z,102275.22
2022-09-20T05:00:42.671Z,102269.97
2022-09-20T05:06:15.327Z,102281.28
2022-09-20T05:11:56.813Z,102301.34
2022-09-20T05:17:30.653Z,102293.50
2022-09-20T05:23:21.056Z,102298.69
2022-09-20T05:28:52.995Z,102308.25
2022-09-20T05:34:22.469Z,102309.97
2022-09-20T05:39:49.470Z,102301.19
2022-09-20T05:45:22.841Z,102304.63
2022-09-20T05:50:47.964Z,102295.84
2022-09-20T05:56:16.082Z,102310.59
2022-09-20T06:01:40.853Z,102309.72
2022-09-20T06:07:08.427Z,102320.22
2022-09-20T06:12:39.535Z,102326.22
2022-09-20T06:18:11.830Z,102335.81
2022-09-20T06:23:34.490Z,102343.66
2022-09-20T06:29:01.943Z,102334.97
2022-09-20T06:34:23.733Z,102333.09
2022-09-20T06:40:07.394Z,102340.75
2022-09-20T06:45:31.367Z,102353.78
2022-09-20T06:50:52.925Z,102347.50
2022-09-20T06:56:16.921Z,102349.22
2022-09-20T07:01:39.448Z,102359.53
2022-09-20T07:07:04.098Z,102363.06
2022-09-20T07:12:32.738Z,102368.31
2022-09-20T07:17:55.417Z,102372.44
2022-09-20T07:23:18.625Z,102363.50
2022-09-20T07:28:40.278Z,102351.16
2022-09-20T07:34:02.756Z,102362.25
2022-09-20T07:39:24.369Z,102360.31
2022-09-20T07:44:46.946Z,102375.19
2022-09-20T07:50:10.475Z,102376.88
2022-09-20T07:55:32.121Z,102373.50
2022-09-20T08:00:54.719Z,102383.16
2022-09-20T08:06:17.967Z,102398.47
2022-09-20T08:11:42.071Z,102428.78
2022-09-20T08:17:03.656Z,102437.63
2022-09-20T08:22:25.923Z,102408.59
2022-09-20T08:27:52.345Z,102433.41
2022-09-20T08:33:14.394Z,102424.25
2022-09-20T08:44:24.415Z,102429.53
2022-09-20T08:49:46.603Z,102430.94
2022-09-20T08:55:16.023Z,102426.50
2022-09-20T09:00:39.054Z,102425.53
2022-09-20T09:06:00.879Z,102415.22
2022-09-20T09:11:23.177Z,102425.50
2022-09-20T09:16:44.854Z,102422.19
2022-09-20T09:22:06.562Z,102427.47
2022-09-20T09:27:28.861Z,102420.63
2022-09-20T09:32:50.492Z,102411.00
2022-09-20T09:38:18.126Z,102410.84
2022-09-20T09:43:40.362Z,102415.84
2022-09-20T09:49:11.228Z,102414.75
2022-09-20T09:54:36.069Z,102415.53
2022-09-20T10:00:12.970Z,102413.41
2022-09-20T10:05:42.606Z,102416.88
2022-09-20T10:11:15.167Z,102412.31
2022-09-20T10:16:55.195Z,102415.78
2022-09-20T10:22:23.382Z,102409.47
2022-09-20T10:27:54.126Z,102408.06
2022-09-20T10:33:21.378Z,102403.38
2022-09-20T10:38:45.481Z,102405.06
2022-09-20T10:44:21.495Z,102397.25
2022-09-20T10:49:51.089Z,102408.78
2022-09-20T10:55:24.838Z,102407.06
2022-09-20T11:00:54.244Z,102400.56
2022-09-20T11:06:19.769Z,102408.91
2022-09-20T11:11:42.800Z,102406.50
2022-09-20T11:17:08.735Z,102403.97
2022-09-20T11:22:34.436Z,102406.22
2022-09-20T11:28:01.272Z,102413.31
2022-09-20T11:33:26.390Z,102428.47
2022-09-20T11:38:53.179Z,102419.41
2022-09-20T11:44:16.785Z,102410.34
2022-09-20T11:49:48.876Z,102413.97
2022-09-20T11:55:37.857Z,102411.72
2022-09-20T12:00:59.638Z,102405.00
2022-09-20T12:06:26.844Z,102408.47
2022-09-20T12:11:51.746Z,102424.63
2022-09-20T12:17:49.276Z,102416.50
2022-09-20T12:23:50.288Z,102422.47
2022-09-20T12:29:52.520Z,102422.63
2022-09-20T12:35:56.735Z,102416.19
2022-09-20T12:41:27.924Z,102400.72
2022-09-20T12:46:53.192Z,102404.03
2022-09-20T12:52:41.406Z,102399.25
2022-09-20T12:58:06.293Z,102418.63
2022-09-20T13:03:31.140Z,102421.78
2022-09-20T13:08:56.467Z,102423.72
2022-09-20T13:14:21.894Z,102414.56
2022-09-20T13:19:45.787Z,102420.13
2022-09-20T13:25:13.449Z,102420.09
2022-09-20T13:30:36.075Z,102423.94
2022-09-20T13:35:57.952Z,102422.06
2022-09-20T13:41:19.697Z,102426.56
2022-09-20T13:46:44.225Z,102434.06
2022-09-20T13:52:18.754Z,102438.97
2022-09-20T13:57:40.804Z,102453.47
2022-09-20T14:03:04.029Z,102444.94
2022-09-20T14:08:27.869Z,102445.59
2022-09-20T14:13:51.461Z,102455.38
2022-09-20T14:19:15.424Z,102441.06
2022-09-20T14:24:37.271Z,102440.00
2022-09-20T14:29:58.935Z,102441.78
2022-09-20T14:35:22.432Z,102434.22
2022-09-20T14:40:46.391Z,102430.13
2022-09-20T14:46:14.956Z,102426.78
2022-09-20T14:51:37.281Z,102428.47
2022-09-20T14:56:58.890Z,102430.38
2022-09-20T15:02:20.900Z,102418.34
2022-09-20T15:07:44.428Z,102415.88
2022-09-20T15:13:08.756Z,102403.91
2022-09-20T15:18:33.874Z,102419.66
2022-09-20T15:23:56.059Z,102415.56
2022-09-20T15:29:17.847Z,102406.38
2022-09-20T15:34:39.447Z,102402.03
2022-09-20T15:40:03.265Z,102413.97
2022-09-20T15:45:26.256Z,102420.81
2022-09-20T15:51:01.142Z,102416.84
2022-09-20T15:56:25.951Z,102411.91
2022-09-20T16:01:47.586Z,102421.66
2022-09-20T16:07:09.553Z,102415.94
2022-09-20T16:12:31.765Z,102418.34
2022-09-20T16:18:11.821Z,102424.47
2022-09-20T16:23:33.411Z,102439.25
2022-09-20T16:28:56.984Z,102433.59
2022-09-20T16:34:20.117Z,102450.75
2022-09-20T16:39:41.918Z,102451.19
2022-09-20T16:45:06.222Z,102459.06
2022-09-20T16:50:28.680Z,102474.13
2022-09-20T16:55:50.434Z,102471.97
2022-09-20T17:01:12.778Z,102475.91
2022-09-20T17:06:35.569Z,102488.34
2022-09-20T17:11:57.226Z,102487.56
2022-09-20T17:17:22.105Z,102491.09
2022-09-20T17:22:43.710Z,102486.75
2022-09-20T17:28:05.337Z,102492.97
2022-09-20T17:33:28.969Z,102504.53
2022-09-20T17:38:53.530Z,102504.69
2022-09-20T17:44:15.588Z,102504.06
2022-09-20T17:49:39.891Z,102518.25
2022-09-20T17:55:01.565Z,102523.03
2022-09-20T18:00:23.423Z,102513.66
2022-09-20T18:05:45.600Z,102527.16
2022-09-20T18:11:08.239Z,102526.97
2022-09-20T18:16:30.864Z,102527.06
2022-09-20T18:21:53.189Z,102530.59
2022-09-20T18:27:15.128Z,102533.31
2022-09-20T18:32:36.711Z,102541.25
2022-09-20T18:37:58.924Z,102549.19
2022-09-20T18:43:20.512Z,102552.72
2022-09-20T18:48:42.839Z,102556.13
2022-09-20T18:54:05.248Z,102567.53
2022-09-20T18:59:27.794Z,102561.47
2022-09-20T19:05:11.470Z,102569.34
2022-09-20T19:10:41.403Z,102579.81
2022-09-20T19:16:16.549Z,102567.63
2022-09-20T19:21:43.226Z,102573.75
2022-09-20T19:27:07.868Z,102578.22
2022-09-20T19:32:30.368Z,102579.19
2022-09-20T19:38:04.363Z,102576.66
2022-09-20T19:43:38.386Z,102583.72
2022-09-20T19:49:07.241Z,102592.41
2022-09-20T19:54:30.470Z,102593.28
2022-09-20T19:59:53.232Z,102606.47
2022-09-20T20:05:16.899Z,102607.44
2022-09-20T20:10:44.768Z,102614.34
2022-09-20T20:16:11.607Z,102620.47
2022-09-20T20:21:39.926Z,102606.59
2022-09-20T20:27:01.507Z,102629.28
2022-09-20T20:32:23.777Z,102626.69
2022-09-20T20:37:47.419Z,102615.44
2022-09-20T20:43:09.171Z,102623.38
2022-09-20T20:48:31.737Z,102624.41
2022-09-20T20:53:54.158Z,102629.69
2022-09-20T20:59:16.486Z,102640.22
2022-09-20T21:04:39.966Z,102641.19
2022-09-20T21:10:01.516Z,102652.63
2022-09-20T21:15:23.082Z,102645.66
2022-09-20T21:20:45.247Z,102653.63
2022-09-20T21:26:08.553Z,102653.69
2022-09-20T21:31:31.431Z,102654.59
2022-09-20T21:36:53.735Z,102653.81
2022-09-20T21:42:16.332Z,102652.16
2022-09-20T21:47:37.888Z,102616.47
2022-09-20T21:53:00.075Z,102651.41
2022-09-20T21:58:21.620Z,102661.94
2022-09-20T22:03:44.612Z,102664.63
2022-09-20T22:09:08.034Z,102665.53
2022-09-20T22:14:29.579Z,102671.69
2022-09-20T22:19:52.251Z,102669.97
2022-09-20T22:25:14.841Z,102672.66
2022-09-20T22:30:36.707Z,102670.94
2022-09-20T22:35:59.511Z,102674.47
2022-09-20T22:41:22.118Z,102666.63
2022-09-20T22:46:43.908Z,102668.38
2022-09-20T22:52:05.744Z,102685.88
2022-09-20T22:57:28.247Z,102662.31
2022-09-20T23:02:50.189Z,102679.81
2022-09-20T23:08:12.006Z,102683.28
2022-09-20T23:13:34.789Z,102689.44
2022-09-20T23:18:58.034Z,102691.19
2022-09-20T23:24:19.803Z,102678.09
2022-09-20T23:29:42.449Z,102688.53
2022-09-20T23:35:04.927Z,102687.69
2022-09-20T23:40:26.843Z,102688.56
2022-09-20T23:45:49.444Z,102686.81
2022-09-20T23:51:13.400Z,102688.56
2022-09-20T23:56:35.687Z,102682.44
